createdAt,value
2023-02-17T00:02:12.227Z,72.77
2023-02-17T00:04:48.335Z,75.13
2023-02-17T00:07:25.441Z,74.80
2023-02-17T00:10:01.023Z,73.20
2023-02-17T00:12:36.733Z,78.03
2023-02-17T00:15:18.701Z,75.13
2023-02-17T00:17:57.309Z,73.73
2023-02-17T00:20:35.519Z,76.30
2023-02-17T00:23:12.233Z,78.57
2023-02-17T00:25:49.901Z,73.97
2023-02-17T00:28:26.111Z,77.40
2023-02-17T00:31:01.984Z,76.40
2023-02-17T00:33:40.886Z,77.10
2023-02-17T00:36:19.870Z,78.27
2023-02-17T00:38:56.660Z,75.43
2023-02-17T00:41:33.739Z,79.17
2023-02-17T00:44:09.979Z,79.80
2023-02-17T00:46:47.301Z,79.17
2023-02-17T00:49:27.312Z,78.93
2023-02-17T00:52:06.663Z,80.20
2023-02-17T00:54:45.146Z,80.77
2023-02-17T00:57:21.764Z,79.63
2023-02-17T01:00:02.530Z,83.30
2023-02-17T01:02:39.051Z,83.33
2023-02-17T01:05:17.643Z,81.60
2023-02-17T01:07:54.373Z,82.53
2023-02-17T01:10:32.809Z,82.57
2023-02-17T01:13:11.050Z,83.30
2023-02-17T01:15:48.589Z,84.97
2023-02-17T01:18:27.772Z,83.43
2023-02-17T01:21:06.596Z,81.70
2023-02-17T01:23:43.080Z,80.40
2023-02-17T01:26:23.547Z,85.43
2023-02-17T01:28:59.838Z,82.23
2023-02-17T01:31:40.495Z,84.70
2023-02-17T01:34:20.435Z,82.73
2023-02-17T01:36:59.094Z,86.63
2023-02-17T01:39:36.733Z,84.23
2023-02-17T01:42:17.448Z,90.10
2023-02-17T01:45:28.059Z,91.67
2023-02-17T01:48:17.666Z,87.57
2023-02-17T01:50:58.515Z,90.13
2023-02-17T01:53:46.247Z,91.90
2023-02-17T01:56:26.761Z,92.77
2023-02-17T01:59:10.738Z,93.53
2023-02-17T02:01:47.288Z,91.70
2023-02-17T02:04:27.629Z,91.40
2023-02-17T02:07:05.650Z,93.60
2023-02-17T02:09:51.382Z,91.60
2023-02-17T02:12:29.551Z,91.30
2023-02-17T02:15:13.839Z,95.33
2023-02-17T02:18:01.643Z,89.10
2023-02-17T02:21:00.426Z,89.83
2023-02-17T02:23:58.575Z,91.47
2023-02-17T02:27:08.408Z,90.30
2023-02-17T02:30:30.095Z,91.33
2023-02-17T02:33:18.350Z,91.27
2023-02-17T02:36:02.062Z,90.77
2023-02-17T02:38:43.699Z,90.90
2023-02-17T02:41:25.075Z,93.47
2023-02-17T02:44:04.820Z,90.90
2023-02-17T02:46:42.185Z,93.43
2023-02-17T02:49:21.318Z,93.47
2023-02-17T02:52:11.777Z,93.13
2023-02-17T02:54:57.832Z,91.90
2023-02-17T02:57:46.321Z,95.60
2023-02-17T03:00:32.347Z,91.27
2023-02-17T03:03:21.401Z,95.50
2023-02-17T03:06:06.185Z,96.67
2023-02-17T03:08:45.471Z,96.60
2023-02-17T03:11:33.677Z,95.10
2023-02-17T03:14:13.520Z,95.33
2023-02-17T03:16:51.405Z,94.47
2023-02-17T03:19:31.852Z,95.20
2023-02-17T03:22:14.488Z,95.67
2023-02-17T03:24:52.089Z,98.73
2023-02-17T03:27:29.438Z,95.93
2023-02-17T03:30:10.117Z,98.13
2023-02-17T03:32:47.614Z,95.13
2023-02-17T03:35:23.780Z,100.03
2023-02-17T03:38:05.073Z,96.90
2023-02-17T03:40:42.892Z,97.00
2023-02-17T03:43:19.840Z,100.63
2023-02-17T03:45:57.818Z,102.77
2023-02-17T03:48:38.321Z,98.47
2023-02-17T03:51:21.760Z,100.13
2023-02-17T03:54:04.458Z,100.23
2023-02-17T03:56:52.783Z,101.53
2023-02-17T03:59:31.309Z,101.37
2023-02-17T04:02:08.563Z,100.77
2023-02-17T04:04:51.971Z,103.60
2023-02-17T04:07:32.711Z,101.13
2023-02-17T04:10:18.160Z,98.90
2023-02-17T04:12:55.362Z,100.80
2023-02-17T04:15:33.694Z,99.73
2023-02-17T04:18:10.629Z,100.80
2023-02-17T04:20:47.403Z,99.40
2023-02-17T04:23:36.684Z,101.43
2023-02-17T04:26:19.252Z,99.87
2023-02-17T04:28:55.823Z,99.27
2023-02-17T04:31:32.183Z,100.53
2023-02-17T04:34:08.994Z,100.40
2023-02-17T04:36:46.877Z,94.63
2023-02-17T04:39:27.517Z,97.80
2023-02-17T04:42:06.908Z,97.60
2023-02-17T04:44:43.868Z,97.17
2023-02-17T04:47:26.065Z,99.23
2023-02-17T04:50:06.859Z,92.97
2023-02-17T04:52:44.976Z,98.73
2023-02-17T04:55:21.632Z,96.20
2023-02-17T04:58:00.737Z,96.23
2023-02-17T05:00:37.329Z,97.27
2023-02-17T05:03:18.100Z,97.30
2023-02-17T05:05:56.963Z,95.60
2023-02-17T05:08:35.516Z,96.73
2023-02-17T05:11:12.087Z,99.00
2023-02-17T05:13:51.910Z,100.47
2023-02-17T05:16:29.488Z,98.73
2023-02-17T05:19:06.574Z,95.63
2023-02-17T05:21:44.102Z,95.13
2023-02-17T05:24:20.439Z,95.00
2023-02-17T05:26:56.922Z,96.07
2023-02-17T05:29:38.243Z,96.73
2023-02-17T05:32:14.210Z,99.13
2023-02-17T05:34:51.539Z,98.70
2023-02-17T05:37:28.765Z,97.90
2023-02-17T05:40:04.655Z,96.83
2023-02-17T05:42:40.655Z,96.53
2023-02-17T05:45:26.420Z,96.73
2023-02-17T05:48:03.031Z,95.50
2023-02-17T05:50:39.680Z,95.40
2023-02-17T05:53:16.340Z,94.87
2023-02-17T05:55:53.296Z,93.77
2023-02-17T05:58:29.743Z,96.07
2023-02-17T06:01:16.948Z,86.40
2023-02-17T06:03:57.100Z,87.07
2023-02-17T06:06:38.733Z,87.23
2023-02-17T06:09:15.391Z,81.80
2023-02-17T06:11:52.944Z,84.07
2023-02-17T06:14:30.881Z,84.63
2023-02-17T06:17:11.534Z,80.77
2023-02-17T06:19:47.559Z,85.10
2023-02-17T06:22:25.768Z,87.67
2023-02-17T06:25:05.691Z,86.20
2023-02-17T06:27:44.960Z,84.60
2023-02-17T06:30:22.770Z,78.77
2023-02-17T06:33:02.441Z,79.17
2023-02-17T06:35:40.119Z,81.63
2023-02-17T06:38:21.153Z,81.63
2023-02-17T06:40:57.930Z,80.80
2023-02-17T06:43:35.923Z,83.93
2023-02-17T06:46:13.627Z,82.00
2023-02-17T06:48:53.021Z,81.23
2023-02-17T06:51:31.795Z,82.90
2023-02-17T06:54:09.214Z,82.90
2023-02-17T06:56:45.589Z,90.30
2023-02-17T06:59:21.612Z,88.40
2023-02-17T07:02:02.065Z,88.47
2023-02-17T07:04:41.379Z,89.60
2023-02-17T07:07:18.845Z,88.33
2023-02-17T07:09:55.490Z,86.43
2023-02-17T07:12:37.183Z,85.53
2023-02-17T07:15:14.237Z,88.07
2023-02-17T07:17:50.103Z,90.63
2023-02-17T07:20:31.012Z,86.07
2023-02-17T07:23:07.029Z,84.83
2023-02-17T07:25:45.755Z,87.57
2023-02-17T07:28:23.372Z,83.63
2023-02-17T07:30:58.989Z,84.13
2023-02-17T07:33:41.999Z,85.80
2023-02-17T07:36:25.221Z,83.90
2023-02-17T07:39:01.463Z,86.37
2023-02-17T07:41:38.572Z,83.90
2023-02-17T07:44:18.996Z,81.37
2023-02-17T07:46:55.582Z,79.83
2023-02-17T07:49:34.817Z,79.40
2023-02-17T07:52:17.322Z,78.67
2023-02-17T07:54:53.429Z,74.67
2023-02-17T07:57:30.245Z,75.07
2023-02-17T08:00:13.161Z,74.10
2023-02-17T08:02:54.699Z,72.23
2023-02-17T08:05:33.911Z,77.00
2023-02-17T08:08:33.666Z,80.10
2023-02-17T08:11:25.523Z,78.03
2023-02-17T08:14:05.567Z,77.97
2023-02-17T08:16:48.086Z,77.20
2023-02-17T08:19:23.912Z,76.40
2023-02-17T08:21:59.709Z,78.30
2023-02-17T08:24:48.878Z,78.10
2023-02-17T08:27:25.794Z,79.93
2023-02-17T08:30:02.097Z,78.90
2023-02-17T08:32:41.922Z,79.83
2023-02-17T08:35:21.139Z,77.57
2023-02-17T08:37:59.666Z,77.60
2023-02-17T08:40:40.408Z,79.33
2023-02-17T08:43:17.192Z,76.77
2023-02-17T08:45:55.079Z,77.60
2023-02-17T08:48:34.825Z,74.60
2023-02-17T08:51:22.806Z,75.13
2023-02-17T08:54:00.313Z,76.63
2023-02-17T08:56:39.397Z,73.80
2023-02-17T08:59:22.547Z,74.27
2023-02-17T09:02:00.265Z,75.27
2023-02-17T09:04:41.469Z,72.97
2023-02-17T09:07:21.125Z,74.00
2023-02-17T09:09:58.562Z,77.90
2023-02-17T09:12:39.497Z,76.03
2023-02-17T09:15:16.393Z,76.80
2023-02-17T09:17:54.978Z,74.33
2023-02-17T09:20:31.650Z,78.80
2023-02-17T09:23:08.059Z,77.23
2023-02-17T09:25:44.245Z,81.13
2023-02-17T09:28:26.385Z,76.63
2023-02-17T09:31:05.388Z,75.63
2023-02-17T09:33:49.649Z,74.80
2023-02-17T09:36:27.762Z,75.93
2023-02-17T09:39:04.962Z,76.03
2023-02-17T09:41:49.914Z,77.50
2023-02-17T09:44:31.844Z,76.03
2023-02-17T09:47:13.259Z,77.33
2023-02-17T09:49:53.842Z,86.00
2023-02-17T09:52:37.403Z,87.27
2023-02-17T09:55:25.462Z,82.67
2023-02-17T09:58:07.137Z,83.90
2023-02-17T10:00:52.654Z,90.40
2023-02-17T10:03:35.142Z,90.37
2023-02-17T10:06:21.002Z,94.77
2023-02-17T10:09:05.727Z,97.67
2023-02-17T10:11:47.655Z,99.87
2023-02-17T10:14:34.097Z,101.20
2023-02-17T10:17:21.134Z,98.13
2023-02-17T10:20:11.008Z,101.47
2023-02-17T10:22:51.170Z,100.57
2023-02-17T10:25:38.790Z,99.40
2023-02-17T10:28:23.968Z,98.73
2023-02-17T10:31:08.621Z,100.93
2023-02-17T10:33:58.071Z,99.50
2023-02-17T10:36:42.684Z,102.13
2023-02-17T10:39:28.514Z,101.33
2023-02-17T10:42:07.232Z,100.90
2023-02-17T10:44:49.082Z,100.00
2023-02-17T10:47:30.570Z,97.20
2023-02-17T10:50:11.762Z,99.23
2023-02-17T10:52:52.633Z,97.87
2023-02-17T10:55:37.410Z,99.07
2023-02-17T10:58:22.008Z,97.73
2023-02-17T11:01:00.899Z,97.27
2023-02-17T11:03:40.129Z,97.70
2023-02-17T11:06:32.013Z,97.43
2023-02-17T11:09:15.217Z,95.30
2023-02-17T11:12:07.968Z,94.03
2023-02-17T11:14:52.239Z,95.27
2023-02-17T11:17:37.301Z,95.70
2023-02-17T11:20:31.103Z,94.03
2023-02-17T11:23:28.224Z,93.67
2023-02-17T11:26:14.982Z,92.07
2023-02-17T11:28:53.321Z,92.10
2023-02-17T11:31:37.492Z,93.43
2023-02-17T11:34:30.062Z,94.57
2023-02-17T11:37:10.262Z,93.60
2023-02-17T11:39:50.821Z,94.57
2023-02-17T11:42:33.017Z,95.80
2023-02-17T11:45:28.718Z,94.53
2023-02-17T11:48:33.212Z,93.97
2023-02-17T11:51:16.701Z,95.27
2023-02-17T11:54:05.962Z,98.20
2023-02-17T11:56:51.821Z,96.23
2023-02-17T11:59:54.231Z,93.17
2023-02-17T12:02:49.773Z,95.60
2023-02-17T12:05:32.516Z,93.23
2023-02-17T12:08:20.770Z,95.87
2023-02-17T12:11:13.391Z,95.13
2023-02-17T12:14:12.259Z,91.70
2023-02-17T12:16:58.436Z,93.93
2023-02-17T12:20:10.559Z,94.53
2023-02-17T12:23:03.946Z,92.87
2023-02-17T12:25:52.062Z,94.10
2023-02-17T12:28:57.666Z,92.47
2023-02-17T12:31:50.399Z,92.47
2023-02-17T12:34:41.710Z,89.70
2023-02-17T12:37:37.827Z,90.37
2023-02-17T12:40:29.197Z,89.40
2023-02-17T12:43:11.851Z,90.57
2023-02-17T12:45:57.288Z,90.87
2023-02-17T12:48:42.612Z,89.30
2023-02-17T12:51:27.272Z,90.37
2023-02-17T12:54:13.607Z,91.23
2023-02-17T12:57:20.954Z,95.07
2023-02-17T13:00:07.987Z,94.47
2023-02-17T13:03:00.457Z,94.60
2023-02-17T13:05:46.522Z,97.20
2023-02-17T13:08:30.629Z,97.53
2023-02-17T13:11:16.958Z,99.37
2023-02-17T13:14:06.202Z,100.47
2023-02-17T13:16:54.341Z,102.20
2023-02-17T13:20:29.545Z,99.87
2023-02-17T13:23:16.561Z,99.20
2023-02-17T13:26:35.662Z,105.03
2023-02-17T13:29:47.075Z,101.60
2023-02-17T13:32:36.978Z,104.40
2023-02-17T13:35:40.600Z,102.87
2023-02-17T13:38:38.342Z,103.53
2023-02-17T13:41:24.953Z,104.40
2023-02-17T13:44:06.139Z,102.90
2023-02-17T13:46:45.135Z,102.83
2023-02-17T13:49:30.568Z,105.40
2023-02-17T13:52:28.889Z,104.33
2023-02-17T13:55:09.624Z,103.30
2023-02-17T13:58:09.566Z,105.30
2023-02-17T14:00:49.134Z,102.40
2023-02-17T14:03:29.521Z,103.00
2023-02-17T14:06:11.841Z,104.00
2023-02-17T14:08:53.975Z,106.03
2023-02-17T14:11:39.649Z,103.93
2023-02-17T14:14:20.829Z,105.13
2023-02-17T14:17:08.514Z,105.93
2023-02-17T14:19:55.743Z,106.70
2023-02-17T14:22:41.284Z,107.90
2023-02-17T14:25:36.645Z,106.53
2023-02-17T14:28:28.280Z,105.30
2023-02-17T14:31:18.016Z,105.87
2023-02-17T14:34:02.664Z,104.50
2023-02-17T14:36:48.462Z,103.93
2023-02-17T14:39:28.500Z,104.67
2023-02-17T14:42:07.619Z,102.20
2023-02-17T14:44:50.657Z,103.60
2023-02-17T14:47:32.423Z,102.40
2023-02-17T14:50:09.253Z,106.17
2023-02-17T14:52:57.098Z,102.17
2023-02-17T14:55:40.720Z,103.90
2023-02-17T14:58:29.233Z,106.90
2023-02-17T15:01:08.818Z,102.43
2023-02-17T15:03:49.569Z,103.70
2023-02-17T15:06:32.583Z,102.03
2023-02-17T15:09:16.708Z,105.20
2023-02-17T15:11:58.964Z,104.90
2023-02-17T15:14:49.674Z,104.37
2023-02-17T15:17:30.298Z,105.43
2023-02-17T15:20:08.518Z,105.60
2023-02-17T15:22:54.113Z,104.00
2023-02-17T15:25:41.404Z,101.77
2023-02-17T15:28:27.141Z,104.90
2023-02-17T15:31:13.085Z,106.33
2023-02-17T15:33:49.637Z,106.33
2023-02-17T15:36:34.784Z,106.33
2023-02-17T15:39:11.716Z,106.57
2023-02-17T15:41:51.884Z,102.97
2023-02-17T15:44:31.031Z,104.93
2023-02-17T15:47:19.782Z,103.20
2023-02-17T15:49:57.902Z,104.40
2023-02-17T15:52:38.329Z,110.40
2023-02-17T15:55:18.334Z,104.87
2023-02-17T15:57:58.484Z,105.77
2023-02-17T16:00:39.187Z,108.00
2023-02-17T16:03:22.058Z,106.40
2023-02-17T16:06:06.129Z,107.17
2023-02-17T16:08:43.217Z,108.23
2023-02-17T16:11:21.609Z,107.20
2023-02-17T16:13:59.218Z,103.63
2023-02-17T16:16:39.148Z,108.13
2023-02-17T16:19:22.159Z,108.10
2023-02-17T16:21:58.652Z,108.63
2023-02-17T16:24:35.150Z,111.37
2023-02-17T16:27:15.838Z,107.50
2023-02-17T16:29:53.475Z,108.63
2023-02-17T16:32:40.904Z,106.37
2023-02-17T16:35:29.441Z,109.63
2023-02-17T16:38:10.343Z,108.80
2023-02-17T16:40:51.199Z,108.10
2023-02-17T16:43:32.012Z,110.63
2023-02-17T16:46:22.153Z,111.53
2023-02-17T16:48:59.135Z,106.57
2023-02-17T16:51:37.583Z,110.90
2023-02-17T16:54:26.573Z,110.10
2023-02-17T16:57:08.111Z,110.90
2023-02-17T16:59:44.663Z,109.37
2023-02-17T17:02:21.941Z,108.13
2023-02-17T17:04:59.532Z,107.93
2023-02-17T17:07:52.520Z,106.60
2023-02-17T17:10:32.396Z,109.10
2023-02-17T17:13:18.688Z,101.47
2023-02-17T17:15:58.557Z,105.70
2023-02-17T17:18:40.475Z,106.60
2023-02-17T17:21:22.712Z,102.00
2023-02-17T17:24:01.529Z,104.33
2023-02-17T17:26:42.865Z,107.53
2023-02-17T17:29:22.002Z,106.37
2023-02-17T17:31:58.618Z,105.83
2023-02-17T17:34:37.910Z,105.23
2023-02-17T17:37:16.302Z,106.20
2023-02-17T17:39:59.763Z,102.73
2023-02-17T17:42:35.915Z,102.43
2023-02-17T17:45:13.061Z,103.93
2023-02-17T17:47:52.162Z,103.27
2023-02-17T17:50:29.205Z,105.70
2023-02-17T17:53:05.712Z,106.17
2023-02-17T17:55:44.189Z,103.83
2023-02-17T17:58:23.304Z,108.33
2023-02-17T18:00:59.329Z,107.93
2023-02-17T18:03:35.135Z,107.77
2023-02-17T18:06:13.965Z,103.67
2023-02-17T18:08:51.048Z,105.90
2023-02-17T18:11:29.520Z,106.87
2023-02-17T18:14:09.464Z,104.20
2023-02-17T18:16:48.477Z,106.07
2023-02-17T18:19:27.855Z,109.80
2023-02-17T18:22:04.438Z,108.23
2023-02-17T18:24:40.748Z,107.67
2023-02-17T18:27:18.711Z,105.17
2023-02-17T18:29:54.548Z,108.77
2023-02-17T18:32:30.467Z,108.07
2023-02-17T18:35:05.893Z,108.20
2023-02-17T18:37:42.363Z,108.00
2023-02-17T18:40:21.971Z,110.87
2023-02-17T18:43:01.194Z,109.27
2023-02-17T18:45:40.687Z,104.77
2023-02-17T18:48:16.568Z,107.70
2023-02-17T18:50:52.257Z,103.40
2023-02-17T18:53:27.605Z,104.67
2023-02-17T18:56:04.177Z,106.90
2023-02-17T18:58:42.250Z,106.37
2023-02-17T19:01:22.359Z,105.53
2023-02-17T19:03:58.536Z,108.20
2023-02-17T19:06:35.788Z,107.93
2023-02-17T19:09:12.107Z,105.27
2023-02-17T19:11:49.053Z,104.10
2023-02-17T19:14:27.514Z,102.97
2023-02-17T19:17:08.498Z,103.80
2023-02-17T19:19:44.529Z,102.27
2023-02-17T19:22:20.298Z,104.97
2023-02-17T19:24:57.960Z,104.97
2023-02-17T19:27:33.620Z,105.37
2023-02-17T19:30:12.172Z,99.67
2023-02-17T19:32:47.214Z,99.70
2023-02-17T19:35:22.939Z,100.63
2023-02-17T19:37:58.706Z,100.33
2023-02-17T19:40:34.717Z,96.53
2023-02-17T19:43:10.421Z,97.47
2023-02-17T19:45:50.226Z,99.90
2023-02-17T19:48:26.200Z,99.03
2023-02-17T19:51:06.360Z,99.37
2023-02-17T19:53:41.722Z,99.33
2023-02-17T19:56:18.456Z,95.90
2023-02-17T19:58:53.783Z,96.00
2023-02-17T20:01:32.998Z,95.40
2023-02-17T20:04:12.702Z,98.07
2023-02-17T20:06:49.494Z,95.23
2023-02-17T20:09:26.876Z,96.63
2023-02-17T20:12:01.706Z,94.37
2023-02-17T20:14:36.568Z,94.30
2023-02-17T20:17:13.757Z,95.17
2023-02-17T20:19:48.384Z,91.30
2023-02-17T20:22:22.583Z,94.03
2023-02-17T20:24:57.410Z,95.63
2023-02-17T20:27:32.465Z,91.73
2023-02-17T20:30:07.826Z,92.73
2023-02-17T20:32:44.406Z,92.30
2023-02-17T20:35:21.372Z,92.00
2023-02-17T20:37:55.648Z,93.93
2023-02-17T20:40:29.298Z,90.17
2023-02-17T20:43:04.528Z,90.93
2023-02-17T20:45:38.997Z,89.87
2023-02-17T20:48:15.075Z,87.97
2023-02-17T20:50:53.404Z,92.77
2023-02-17T20:53:28.292Z,92.07
2023-02-17T20:56:02.580Z,90.93
2023-02-17T20:58:36.756Z,86.57
2023-02-17T21:01:11.758Z,90.37
2023-02-17T21:03:48.426Z,89.87
2023-02-17T21:06:26.696Z,87.27
2023-02-17T21:09:03.256Z,87.50
2023-02-17T21:11:38.119Z,87.53
2023-02-17T21:14:12.654Z,89.63
2023-02-17T21:16:47.447Z,88.40
2023-02-17T21:19:24.660Z,86.87
2023-02-17T21:21:59.340Z,85.60
2023-02-17T21:24:33.977Z,84.03
2023-02-17T21:27:07.862Z,81.77
2023-02-17T21:29:41.611Z,83.77
2023-02-17T21:32:16.516Z,86.10
2023-02-17T21:34:54.064Z,82.20
2023-02-17T21:37:28.010Z,85.33
2023-02-17T21:40:02.925Z,86.17
2023-02-17T21:42:53.670Z,86.67
2023-02-17T21:45:27.686Z,87.37
2023-02-17T21:48:01.156Z,85.80
2023-02-17T21:50:37.223Z,85.30
2023-02-17T21:53:12.085Z,83.83
2023-02-17T21:55:46.374Z,86.80
2023-02-17T21:58:20.383Z,82.23
2023-02-17T22:00:54.482Z,85.07
2023-02-17T22:03:29.161Z,82.00
2023-02-17T22:06:05.789Z,81.63
2023-02-17T22:08:41.313Z,82.80
2023-02-17T22:11:19.902Z,81.97
2023-02-17T22:13:57.518Z,82.90
2023-02-17T22:16:34.004Z,78.93
2023-02-17T22:19:10.667Z,80.60
2023-02-17T22:21:47.214Z,81.77
2023-02-17T22:24:22.829Z,81.17
2023-02-17T22:26:58.003Z,80.87
2023-02-17T22:29:32.342Z,78.17
2023-02-17T22:32:07.110Z,78.87
2023-02-17T22:34:41.885Z,78.60
2023-02-17T22:37:19.112Z,77.70
2023-02-17T22:39:57.972Z,79.33
2023-02-17T22:42:34.493Z,79.97
2023-02-17T22:45:10.129Z,77.93
2023-02-17T22:47:45.513Z,78.67
2023-02-17T22:50:21.054Z,77.97
2023-02-17T22:52:58.254Z,76.47
2023-02-17T22:55:33.395Z,77.37
2023-02-17T22:58:08.385Z,73.80
2023-02-17T23:00:44.258Z,76.03
2023-02-17T23:03:20.012Z,73.43
2023-02-17T23:05:55.194Z,76.37
2023-02-17T23:08:33.086Z,75.77
2023-02-17T23:11:12.486Z,71.97
2023-02-17T23:13:48.246Z,69.43
2023-02-17T23:16:26.322Z,71.37
2023-02-17T23:19:01.675Z,71.73
2023-02-17T23:21:36.793Z,75.83
2023-02-17T23:24:14.673Z,73.00
2023-02-17T23:26:51.587Z,75.03
2023-02-17T23:29:26.507Z,75.13
2023-02-17T23:32:02.057Z,76.30
2023-02-17T23:34:38.012Z,73.83
2023-02-17T23:37:13.389Z,71.97
2023-02-17T23:39:51.339Z,74.03
2023-02-17T23:42:27.365Z,73.40
2023-02-17T23:45:03.399Z,74.67
2023-02-17T23:47:40.321Z,73.50
2023-02-17T23:50:17.245Z,72.03
2023-02-17T23:52:53.212Z,73.03
2023-02-17T23:55:31.185Z,72.83
2023-02-17T23:58:07.238Z,71.47
